Terminal Aerodrome Forecast
Issued by NWS Boise, ID

Home | Current Version | Previous Version | Text Only | Print | Product List | Glossary On
Versions: 1 2 3 4 5 6 7 8 9 10 11 12 13 14
000
FTUS45 KBOI 252320
TAFBOI
TAF
KBOI 252320Z 2600/2624 34013KT P6SM VCSH SCT070 BKN100
      TEMPO 2600/2602 VRB15G25KT
     FM260300 VRB06KT P6SM SCT070 BKN100
     FM261600 31009KT P6SM FEW100 SCT250=

USA.gov is the U.S. government's official web portal to all federal, state and local government web resources and services.